createdAt,value
2018-01-11T00:00:36.285Z,53.70
2018-01-11T00:03:02.541Z,52.83
2018-01-11T00:05:28.837Z,51.87
2018-01-11T00:07:56.859Z,56.17
2018-01-11T00:10:25.037Z,53.27
2018-01-11T00:12:52.975Z,49.40
2018-01-11T00:15:19.279Z,53.73
2018-01-11T00:17:45.558Z,50.40
2018-01-11T00:20:12.599Z,50.87
2018-01-11T00:22:39.834Z,50.13
2018-01-11T00:25:06.106Z,49.87
2018-01-11T00:27:32.430Z,52.53
2018-01-11T00:29:58.771Z,53.80
2018-01-11T00:32:25.036Z,51.97
2018-01-11T00:34:51.431Z,48.77
2018-01-11T00:37:17.689Z,52.13
2018-01-11T00:39:43.938Z,52.23
2018-01-11T00:42:10.199Z,54.50
2018-01-11T00:44:37.191Z,54.47
2018-01-11T00:47:03.438Z,53.77
2018-01-11T00:49:29.712Z,54.53
2018-01-11T00:51:56.064Z,51.27
2018-01-11T00:54:22.411Z,50.77
2018-01-11T00:56:48.662Z,53.83
2018-01-11T00:59:14.940Z,47.97
2018-01-11T01:01:41.195Z,52.30
2018-01-11T01:04:07.628Z,54.17
2018-01-11T01:06:33.892Z,49.60
2018-01-11T01:09:00.163Z,52.63
2018-01-11T01:11:26.392Z,54.20
2018-01-11T01:13:52.673Z,54.50
2018-01-11T01:16:18.929Z,52.10
2018-01-11T01:18:45.165Z,50.57
2018-01-11T01:21:11.487Z,52.13
2018-01-11T01:23:38.562Z,50.33
2018-01-11T01:26:04.845Z,50.60
2018-01-11T01:28:31.069Z,49.33
2018-01-11T01:30:58.069Z,49.13
2018-01-11T01:33:24.315Z,48.07
2018-01-11T01:35:50.562Z,50.73
2018-01-11T01:38:16.817Z,45.50
2018-01-11T01:40:43.450Z,45.90
2018-01-11T01:43:09.771Z,43.10
2018-01-11T01:45:36.020Z,43.93
2018-01-11T01:48:03.020Z,44.03
2018-01-11T01:50:29.251Z,47.40
2018-01-11T01:52:55.544Z,43.17
2018-01-11T01:55:21.829Z,47.10
2018-01-11T01:57:48.154Z,45.87
2018-01-11T02:00:14.391Z,49.13
2018-01-11T02:02:41.410Z,49.50
2018-01-11T02:05:07.627Z,50.70
2018-01-11T02:07:34.637Z,49.70
2018-01-11T02:10:00.865Z,47.97
2018-01-11T02:12:27.172Z,45.87
2018-01-11T02:14:54.200Z,46.20
2018-01-11T02:17:20.488Z,46.37
2018-01-11T02:19:46.727Z,49.27
2018-01-11T02:22:13.027Z,46.00
2018-01-11T02:24:39.260Z,46.57
2018-01-11T02:27:05.508Z,46.20
2018-01-11T02:29:31.766Z,42.70
2018-01-11T02:31:58.036Z,44.27
2018-01-11T02:34:24.311Z,43.67
2018-01-11T02:36:50.618Z,40.60
2018-01-11T02:39:16.904Z,41.20
2018-01-11T02:41:43.892Z,41.47
2018-01-11T02:44:10.157Z,42.40
2018-01-11T02:46:36.423Z,42.23
2018-01-11T02:49:04.046Z,42.63
2018-01-11T02:51:30.312Z,40.87
2018-01-11T02:53:56.606Z,41.70
2018-01-11T02:56:22.849Z,41.20
2018-01-11T02:58:49.839Z,40.80
2018-01-11T03:01:16.094Z,41.40
2018-01-11T03:03:42.371Z,41.33
2018-01-11T03:06:08.628Z,42.73
2018-01-11T03:08:34.865Z,43.30
2018-01-11T03:11:01.125Z,42.17
2018-01-11T03:13:27.341Z,43.20
2018-01-11T03:15:53.603Z,42.73
2018-01-11T03:18:20.603Z,41.40
2018-01-11T03:20:46.888Z,42.87
2018-01-11T03:23:13.873Z,40.37
2018-01-11T03:25:40.164Z,39.17
2018-01-11T03:28:06.406Z,36.20
2018-01-11T03:30:32.691Z,38.23
2018-01-11T03:32:59.716Z,37.73
2018-01-11T03:35:25.966Z,38.40
2018-01-11T03:37:52.978Z,37.87
2018-01-11T03:40:20.038Z,41.33
2018-01-11T03:42:46.302Z,40.03
2018-01-11T03:45:20.245Z,39.03
2018-01-11T03:47:47.583Z,38.73
2018-01-11T03:50:14.297Z,39.87
2018-01-11T03:52:41.290Z,39.50
2018-01-11T03:55:07.526Z,42.37
2018-01-11T03:57:33.788Z,39.60
2018-01-11T04:00:00.074Z,38.40
2018-01-11T04:02:26.432Z,39.40
2018-01-11T04:04:52.726Z,41.10
2018-01-11T04:07:18.959Z,40.00
2018-01-11T04:09:45.256Z,39.27
2018-01-11T04:12:12.324Z,39.90
2018-01-11T04:14:38.610Z,38.13
2018-01-11T04:17:04.882Z,38.20
2018-01-11T04:19:31.177Z,37.63
2018-01-11T04:21:57.466Z,37.13
2018-01-11T04:24:23.719Z,36.70
2018-01-11T04:26:49.953Z,37.67
2018-01-11T04:29:16.784Z,37.40
2018-01-11T04:31:43.047Z,37.00
2018-01-11T04:34:09.304Z,39.00
2018-01-11T04:36:35.560Z,35.47
2018-01-11T04:39:02.621Z,40.60
2018-01-11T04:41:28.844Z,37.57
2018-01-11T04:43:55.083Z,36.97
2018-01-11T04:46:21.384Z,37.47
2018-01-11T04:48:47.643Z,37.13
2018-01-11T04:51:14.662Z,37.03
2018-01-11T04:53:40.899Z,38.60
2018-01-11T04:56:07.185Z,36.40
2018-01-11T04:58:33.423Z,39.00
2018-01-11T05:00:59.697Z,38.97
2018-01-11T05:03:26.702Z,37.40
2018-01-11T05:05:53.047Z,40.93
2018-01-11T05:08:19.329Z,39.60
2018-01-11T05:10:45.626Z,39.97
2018-01-11T05:13:11.927Z,42.07
2018-01-11T05:15:38.171Z,41.10
2018-01-11T05:18:04.448Z,42.67
2018-01-11T05:20:31.446Z,42.10
2018-01-11T05:22:57.725Z,40.57
2018-01-11T05:25:23.973Z,40.53
2018-01-11T05:27:50.224Z,42.67
2018-01-11T05:30:16.471Z,44.40
2018-01-11T05:32:42.724Z,44.80
2018-01-11T05:35:10.600Z,44.97
2018-01-11T05:37:36.854Z,46.77
2018-01-11T05:40:03.114Z,44.83
2018-01-11T05:42:29.370Z,47.13
2018-01-11T05:44:55.638Z,47.70
2018-01-11T05:47:21.925Z,48.30
2018-01-11T05:49:48.941Z,47.47
2018-01-11T05:52:15.171Z,48.47
2018-01-11T05:54:41.434Z,49.67
2018-01-11T05:57:07.705Z,50.63
2018-01-11T05:59:34.019Z,50.57
2018-01-11T06:02:00.253Z,49.30
2018-01-11T06:04:26.543Z,49.77
2018-01-11T06:06:52.807Z,49.50
2018-01-11T06:09:19.131Z,49.27
2018-01-11T06:11:45.383Z,50.30
2018-01-11T06:14:11.692Z,53.23
2018-01-11T06:16:38.002Z,51.00
2018-01-11T06:19:05.134Z,53.50
2018-01-11T06:21:38.312Z,54.13
2018-01-11T06:24:04.604Z,56.00
2018-01-11T06:26:30.850Z,53.77
2018-01-11T06:28:57.137Z,54.10
2018-01-11T06:31:24.175Z,53.97
2018-01-11T06:33:51.217Z,55.43
2018-01-11T06:36:18.273Z,55.50
2018-01-11T06:38:45.281Z,52.67
2018-01-11T06:41:11.554Z,54.07
2018-01-11T06:43:38.518Z,52.20
2018-01-11T06:46:04.821Z,52.40
2018-01-11T06:48:31.095Z,49.50
2018-01-11T06:50:57.430Z,50.33
2018-01-11T06:53:23.703Z,48.20
2018-01-11T06:55:50.734Z,50.17
2018-01-11T06:58:17.012Z,51.03
2018-01-11T07:00:43.322Z,50.73
2018-01-11T07:03:09.714Z,48.33
2018-01-11T07:05:36.030Z,47.93
2018-01-11T07:08:02.293Z,57.27
2018-01-11T07:10:29.346Z,50.30
2018-01-11T07:12:56.385Z,48.97
2018-01-11T07:15:22.642Z,48.17
2018-01-11T07:17:48.950Z,48.60
2018-01-11T07:20:15.992Z,46.17
2018-01-11T07:22:42.370Z,49.97
2018-01-11T07:25:08.614Z,49.50
2018-01-11T07:27:35.087Z,48.43
2018-01-11T07:30:02.341Z,49.40
2018-01-11T07:32:28.599Z,48.50
2018-01-11T07:34:54.906Z,48.63
2018-01-11T07:37:21.235Z,47.93
2018-01-11T07:39:47.479Z,48.10
2018-01-11T07:42:13.699Z,47.30
2018-01-11T07:44:39.994Z,47.70
2018-01-11T07:47:06.370Z,46.57
2018-01-11T07:49:32.692Z,48.03
2018-01-11T07:51:58.930Z,46.73
2018-01-11T07:54:25.162Z,46.60
2018-01-11T07:56:51.448Z,46.90
2018-01-11T07:59:17.748Z,49.27
2018-01-11T08:01:43.996Z,51.53
2018-01-11T08:04:10.411Z,53.40
2018-01-11T08:06:36.679Z,49.00
2018-01-11T08:09:09.985Z,49.20
2018-01-11T08:11:36.237Z,49.57
2018-01-11T08:14:02.558Z,51.20
2018-01-11T08:16:28.822Z,48.93
2018-01-11T08:18:55.105Z,48.10
2018-01-11T08:21:21.362Z,46.10
2018-01-11T08:23:47.608Z,46.13
2018-01-11T08:26:13.910Z,46.17
2018-01-11T08:28:40.174Z,45.80
2018-01-11T08:31:06.437Z,45.00
2018-01-11T08:33:32.724Z,45.73
2018-01-11T08:35:59.023Z,44.33
2018-01-11T08:38:25.264Z,43.87
2018-01-11T08:40:51.545Z,45.97
2018-01-11T08:43:18.556Z,45.43
2018-01-11T08:45:44.849Z,46.13
2018-01-11T08:48:11.115Z,50.20
2018-01-11T08:50:37.382Z,48.70
2018-01-11T08:53:03.630Z,48.60
2018-01-11T08:55:29.974Z,49.30
2018-01-11T08:57:56.269Z,49.57
2018-01-11T09:00:23.270Z,48.73
2018-01-11T09:02:49.545Z,50.80
2018-01-11T09:05:15.847Z,51.10
2018-01-11T09:07:42.120Z,51.13
2018-01-11T09:10:08.416Z,49.93
2018-01-11T09:12:34.678Z,50.90
2018-01-11T09:15:00.940Z,52.70
2018-01-11T09:17:27.215Z,49.57
2018-01-11T09:19:53.497Z,50.50
2018-01-11T09:22:19.780Z,52.57
2018-01-11T09:24:46.022Z,54.30
2018-01-11T09:27:12.301Z,52.53
2018-01-11T09:29:38.574Z,46.47
2018-01-11T09:32:04.909Z,48.13
2018-01-11T09:34:31.169Z,50.03
2018-01-11T09:36:57.427Z,48.60
2018-01-11T09:39:23.701Z,45.63
2018-01-11T09:41:49.959Z,48.37
2018-01-11T09:44:16.226Z,48.10
2018-01-11T09:46:43.232Z,47.93
2018-01-11T09:49:09.554Z,47.00
2018-01-11T09:51:35.839Z,48.03
2018-01-11T09:54:02.121Z,46.43
2018-01-11T09:56:28.430Z,45.33
2018-01-11T09:58:54.703Z,44.30
2018-01-11T10:01:20.951Z,44.57
2018-01-11T10:03:47.952Z,44.13
2018-01-11T10:06:14.285Z,40.80
2018-01-11T10:08:45.798Z,42.30
2018-01-11T10:11:13.098Z,45.70
2018-01-11T10:13:41.609Z,45.87
2018-01-11T10:16:08.593Z,40.47
2018-01-11T10:18:34.872Z,40.87
2018-01-11T10:21:04.901Z,39.10
2018-01-11T10:23:31.884Z,40.40
2018-01-11T10:25:58.325Z,42.77
2018-01-11T10:28:24.774Z,42.20
2018-01-11T10:30:51.070Z,41.63
2018-01-11T10:33:17.775Z,41.57
2018-01-11T10:35:45.304Z,40.73
2018-01-11T10:38:12.801Z,41.70
2018-01-11T10:40:39.800Z,42.00
2018-01-11T10:43:07.011Z,39.83
2018-01-11T10:45:34.407Z,40.23
2018-01-11T10:48:01.658Z,42.33
2018-01-11T10:50:28.832Z,42.17
2018-01-11T10:52:55.160Z,43.13
2018-01-11T10:55:21.428Z,43.83
2018-01-11T10:57:47.745Z,40.30
2018-01-11T11:00:14.611Z,40.43
2018-01-11T11:02:48.135Z,39.57
2018-01-11T11:05:14.407Z,39.87
2018-01-11T11:07:41.433Z,40.33
2018-01-11T11:10:08.699Z,39.27
2018-01-11T11:12:35.804Z,38.70
2018-01-11T11:15:02.073Z,39.10
2018-01-11T11:17:29.245Z,37.30
2018-01-11T11:19:56.261Z,41.30
2018-01-11T11:22:23.928Z,39.43
2018-01-11T11:24:55.951Z,40.63
2018-01-11T11:27:25.096Z,39.40
2018-01-11T11:29:51.450Z,39.90
2018-01-11T11:32:18.366Z,41.47
2018-01-11T11:34:44.881Z,42.27
2018-01-11T11:37:11.164Z,40.90
2018-01-11T11:39:37.635Z,40.37
2018-01-11T11:42:04.179Z,40.87
2018-01-11T11:44:32.025Z,43.87
2018-01-11T11:46:58.369Z,42.23
2018-01-11T11:49:25.531Z,41.57
2018-01-11T11:51:52.350Z,41.10
2018-01-11T11:54:18.801Z,44.23
2018-01-11T11:56:45.093Z,41.57
2018-01-11T11:59:11.383Z,41.70
2018-01-11T12:01:37.698Z,38.00
2018-01-11T12:04:05.643Z,39.43
2018-01-11T12:06:31.936Z,42.50
2018-01-11T12:08:58.983Z,46.13
2018-01-11T12:11:25.250Z,44.60
2018-01-11T12:13:51.538Z,45.93
2018-01-11T12:16:18.703Z,45.40
2018-01-11T12:18:45.997Z,45.07
2018-01-11T12:21:12.578Z,47.07
2018-01-11T12:23:38.922Z,40.13
2018-01-11T12:26:05.448Z,42.10
2018-01-11T12:28:32.261Z,40.00
2018-01-11T12:30:58.557Z,40.97
2018-01-11T12:33:25.096Z,43.77
2018-01-11T12:35:52.114Z,45.00
2018-01-11T12:38:19.697Z,43.80
2018-01-11T12:40:46.203Z,42.63
2018-01-11T12:43:12.472Z,42.30
2018-01-11T12:45:38.724Z,40.90
2018-01-11T12:48:05.763Z,40.90
2018-01-11T12:50:32.896Z,42.80
2018-01-11T12:52:59.152Z,43.83
2018-01-11T12:55:25.582Z,44.70
2018-01-11T12:57:51.982Z,42.13
2018-01-11T13:00:18.234Z,42.10
2018-01-11T13:02:44.447Z,39.63
2018-01-11T13:05:10.709Z,40.90
2018-01-11T13:07:36.980Z,39.83
2018-01-11T13:10:03.258Z,40.20
2018-01-11T13:12:31.593Z,41.70
2018-01-11T13:14:59.481Z,43.03
2018-01-11T13:17:25.892Z,42.20
2018-01-11T13:19:52.193Z,41.70
2018-01-11T13:22:19.887Z,41.63
2018-01-11T13:24:47.080Z,43.80
2018-01-11T13:27:13.512Z,42.60
2018-01-11T13:29:49.341Z,42.47
2018-01-11T13:32:16.422Z,40.50
2018-01-11T13:34:43.321Z,41.67
2018-01-11T13:37:10.618Z,41.17
2018-01-11T13:39:44.187Z,41.53
2018-01-11T13:42:10.568Z,45.90
2018-01-11T13:44:39.018Z,43.10
2018-01-11T13:47:06.719Z,42.43
2018-01-11T13:49:33.154Z,41.27
2018-01-11T13:51:59.362Z,43.40
2018-01-11T13:54:25.605Z,43.73
2018-01-11T13:56:52.171Z,41.80
2018-01-11T13:59:18.513Z,42.10
2018-01-11T14:01:45.477Z,41.67
2018-01-11T14:04:12.451Z,40.10
2018-01-11T14:06:39.780Z,39.07
2018-01-11T14:09:07.726Z,40.50
2018-01-11T14:11:34.203Z,41.00
2018-01-11T14:14:02.405Z,39.57
2018-01-11T14:16:30.127Z,40.30
2018-01-11T14:19:00.612Z,39.80
2018-01-11T14:21:27.582Z,37.57
2018-01-11T14:23:57.015Z,39.80
2018-01-11T14:26:25.172Z,38.07
2018-01-11T14:28:51.453Z,40.90
2018-01-11T14:31:17.672Z,37.90
2018-01-11T14:33:43.898Z,38.40
2018-01-11T14:36:11.000Z,40.60
2018-01-11T14:38:37.464Z,40.27
2018-01-11T14:41:03.718Z,39.73
2018-01-11T14:43:29.962Z,37.47
2018-01-11T14:45:57.004Z,37.20
2018-01-11T14:48:23.429Z,41.70
2018-01-11T14:50:50.456Z,46.97
2018-01-11T14:53:18.115Z,40.87
2018-01-11T14:55:45.448Z,42.90
2018-01-11T14:58:16.109Z,37.10
2018-01-11T15:00:42.722Z,44.57
2018-01-11T15:03:09.011Z,54.20
2018-01-11T15:05:36.703Z,43.10
2018-01-11T15:08:03.001Z,42.23
2018-01-11T15:10:30.043Z,41.97
2018-01-11T15:12:57.047Z,41.07
2018-01-11T15:15:23.635Z,37.87
2018-01-11T15:17:51.020Z,39.83
2018-01-11T15:20:18.256Z,37.80
2018-01-11T15:22:44.655Z,38.97
2018-01-11T15:25:12.672Z,39.13
2018-01-11T15:27:38.966Z,40.80
2018-01-11T15:30:05.964Z,41.23
2018-01-11T15:32:32.218Z,42.03
2018-01-11T15:34:58.644Z,43.97
2018-01-11T15:37:24.921Z,38.90
2018-01-11T15:39:51.262Z,42.27
2018-01-11T15:42:18.102Z,41.70
2018-01-11T15:44:45.472Z,40.40
2018-01-11T15:47:13.299Z,42.60
2018-01-11T15:49:40.582Z,41.83
2018-01-11T15:52:07.068Z,38.13
2018-01-11T15:54:36.982Z,40.50
2018-01-11T15:57:03.542Z,42.77
2018-01-11T15:59:31.597Z,41.80
2018-01-11T16:01:58.994Z,41.30
2018-01-11T16:04:33.823Z,41.80
2018-01-11T16:07:00.242Z,39.67
2018-01-11T16:09:26.509Z,36.67
2018-01-11T16:11:54.105Z,32.97
2018-01-11T16:14:22.646Z,31.53
2018-01-11T16:16:49.229Z,28.63
2018-01-11T16:19:18.443Z,29.40
2018-01-11T16:21:44.708Z,28.90
2018-01-11T16:24:11.018Z,28.00
2018-01-11T16:26:37.328Z,27.47
2018-01-11T16:29:11.486Z,26.67
2018-01-11T16:31:38.578Z,25.80
2018-01-11T16:34:06.260Z,27.53
2018-01-11T16:36:32.634Z,27.20
2018-01-11T16:38:58.838Z,27.17
2018-01-11T16:41:25.145Z,27.93
2018-01-11T16:43:51.910Z,27.73
2018-01-11T16:46:20.182Z,27.73
2018-01-11T16:48:47.987Z,27.13
2018-01-11T16:51:14.455Z,26.73
2018-01-11T16:53:40.710Z,26.00
2018-01-11T16:56:07.364Z,26.93
2018-01-11T16:58:34.463Z,27.63
2018-01-11T17:01:00.730Z,26.90
2018-01-11T17:03:26.994Z,26.80
2018-01-11T17:05:53.216Z,27.27
2018-01-11T17:08:19.608Z,29.47
2018-01-11T17:10:45.854Z,26.50
2018-01-11T17:13:13.766Z,29.27
2018-01-11T17:15:40.762Z,30.17
2018-01-11T17:18:07.023Z,29.97
2018-01-11T17:20:38.748Z,29.17
2018-01-11T17:23:05.101Z,30.63
2018-01-11T17:25:31.406Z,31.33
2018-01-11T17:27:57.686Z,31.70
2018-01-11T17:30:24.782Z,33.97
2018-01-11T17:32:51.181Z,33.87
2018-01-11T17:35:21.551Z,33.80
2018-01-11T17:37:47.825Z,34.30
2018-01-11T17:40:14.931Z,35.90
2018-01-11T17:42:41.234Z,37.47
2018-01-11T17:45:07.514Z,37.80
2018-01-11T17:47:33.866Z,36.63
2018-01-11T17:50:00.142Z,35.97
2018-01-11T17:52:26.370Z,36.07
2018-01-11T17:54:52.647Z,35.53
2018-01-11T17:57:19.647Z,36.90
2018-01-11T17:59:45.931Z,37.43
2018-01-11T18:02:12.340Z,37.50
2018-01-11T18:04:39.365Z,36.03
2018-01-11T18:07:05.625Z,36.10
2018-01-11T18:09:32.630Z,39.27
2018-01-11T18:11:58.961Z,36.83
2018-01-11T18:14:26.059Z,37.47
2018-01-11T18:16:52.410Z,37.47
2018-01-11T18:19:18.662Z,36.97
2018-01-11T18:21:49.564Z,38.57
2018-01-11T18:24:16.165Z,38.97
2018-01-11T18:26:43.183Z,36.70
2018-01-11T18:29:09.481Z,38.53
2018-01-11T18:31:39.900Z,40.63
2018-01-11T18:34:06.293Z,37.97
2018-01-11T18:36:36.327Z,41.33
2018-01-11T18:39:04.110Z,39.90
2018-01-11T18:41:34.548Z,43.30
2018-01-11T18:44:00.797Z,42.93
2018-01-11T18:46:27.001Z,40.27
2018-01-11T18:48:53.537Z,42.33
2018-01-11T18:51:23.744Z,40.93
2018-01-11T18:53:50.152Z,42.80
2018-01-11T18:56:16.359Z,39.53
2018-01-11T18:58:42.608Z,41.33
2018-01-11T19:01:09.486Z,46.47
2018-01-11T19:03:37.990Z,42.30
2018-01-11T19:06:05.149Z,43.97
2018-01-11T19:08:31.437Z,42.47
2018-01-11T19:10:59.353Z,45.07
2018-01-11T19:13:28.251Z,44.47
2018-01-11T19:15:54.488Z,47.10
2018-01-11T19:18:20.771Z,69.07
2018-01-11T19:20:47.233Z,47.87
2018-01-11T19:23:14.038Z,46.63
2018-01-11T19:25:40.523Z,46.10
2018-01-11T19:28:07.604Z,47.97
2018-01-11T19:30:33.942Z,47.33
2018-01-11T19:33:00.286Z,49.40
2018-01-11T19:35:27.576Z,44.47
2018-01-11T19:37:53.809Z,46.40
2018-01-11T19:40:22.236Z,47.60
2018-01-11T19:42:51.804Z,50.00
2018-01-11T19:48:03.288Z,51.07
2018-01-11T19:50:31.324Z,51.93
2018-01-11T19:52:57.887Z,53.70
2018-01-11T19:55:25.688Z,51.57
2018-01-11T19:57:53.380Z,49.00
2018-01-11T20:00:21.307Z,50.07
2018-01-11T20:02:48.358Z,52.33
2018-01-11T20:05:15.393Z,49.73
2018-01-11T20:07:42.325Z,52.97
2018-01-11T20:10:10.952Z,53.03
2018-01-11T20:12:38.933Z,52.20
2018-01-11T20:15:06.374Z,51.20
2018-01-11T20:17:34.572Z,53.87
2018-01-11T20:20:01.103Z,52.63
2018-01-11T20:22:27.732Z,53.13
2018-01-11T20:24:54.113Z,54.30
2018-01-11T20:27:21.757Z,55.00
2018-01-11T20:29:48.220Z,55.20
2018-01-11T20:32:14.868Z,52.60
2018-01-11T20:34:41.226Z,54.50
2018-01-11T20:37:07.648Z,55.10
2018-01-11T20:39:34.976Z,54.17
2018-01-11T20:42:01.267Z,55.10
2018-01-11T20:44:27.554Z,53.13
2018-01-11T20:46:54.544Z,54.63
2018-01-11T20:49:20.867Z,54.03
2018-01-11T20:51:47.191Z,55.80
2018-01-11T20:54:13.459Z,55.30
2018-01-11T20:56:41.955Z,54.77
2018-01-11T20:59:08.624Z,51.73
2018-01-11T21:01:38.657Z,55.23
2018-01-11T21:04:07.831Z,54.37
2018-01-11T21:06:34.173Z,56.07
2018-01-11T21:09:07.343Z,52.13
2018-01-11T21:11:35.891Z,52.20
2018-01-11T21:14:02.897Z,55.00
2018-01-11T21:16:29.655Z,54.67
2018-01-11T21:18:55.948Z,51.53
2018-01-11T21:21:24.849Z,51.03
2018-01-11T21:23:53.040Z,53.90
2018-01-11T21:26:21.098Z,53.93
2018-01-11T21:28:48.148Z,55.47
2018-01-11T21:31:29.772Z,54.70
2018-01-11T21:33:59.168Z,56.87
2018-01-11T21:36:25.595Z,57.10
2018-01-11T21:38:52.614Z,57.83
2018-01-11T21:41:18.934Z,57.50
2018-01-11T21:43:57.374Z,57.47
2018-01-11T21:46:23.747Z,57.00
2018-01-11T21:48:50.027Z,56.20
2018-01-11T21:51:18.268Z,55.83
2018-01-11T21:53:44.941Z,58.93
2018-01-11T21:56:14.240Z,57.10
2018-01-11T21:58:40.766Z,58.03
2018-01-11T22:01:07.089Z,57.93
2018-01-11T22:03:33.406Z,61.67
2018-01-11T22:06:00.410Z,56.10
2018-01-11T22:08:26.670Z,61.43
2018-01-11T22:10:53.829Z,58.60
2018-01-11T22:13:20.216Z,58.67
2018-01-11T22:15:46.525Z,53.83
2018-01-11T22:18:12.826Z,60.13
2018-01-11T22:20:39.093Z,59.77
2018-01-11T22:23:05.399Z,58.07
2018-01-11T22:25:31.659Z,58.93
2018-01-11T22:27:57.930Z,60.70
2018-01-11T22:30:24.991Z,59.10
2018-01-11T22:32:51.206Z,60.23
2018-01-11T22:35:25.133Z,60.77
2018-01-11T22:37:51.394Z,60.27
2018-01-11T22:40:18.818Z,57.70
2018-01-11T22:42:45.088Z,55.97
2018-01-11T22:45:11.372Z,58.57
2018-01-11T22:47:37.604Z,59.17
2018-01-11T22:50:03.905Z,57.70
2018-01-11T22:52:30.956Z,58.83
2018-01-11T22:54:58.030Z,55.40
2018-01-11T22:57:24.310Z,59.20
2018-01-11T22:59:51.416Z,59.33
2018-01-11T23:02:17.740Z,55.63
2018-01-11T23:04:44.028Z,55.33
2018-01-11T23:07:10.288Z,58.57
2018-01-11T23:09:36.573Z,60.13
2018-01-11T23:12:04.670Z,61.50
2018-01-11T23:14:33.026Z,60.00
2018-01-11T23:16:59.390Z,62.13
2018-01-11T23:19:25.793Z,59.77
2018-01-11T23:21:52.157Z,60.47
2018-01-11T23:24:19.154Z,60.67
2018-01-11T23:26:45.454Z,59.47
2018-01-11T23:29:11.727Z,61.03
2018-01-11T23:31:38.106Z,59.37
2018-01-11T23:34:04.379Z,62.27
2018-01-11T23:36:30.700Z,61.90
2018-01-11T23:38:56.950Z,64.37
2018-01-11T23:41:23.289Z,61.33
2018-01-11T23:43:50.300Z,59.00
2018-01-11T23:46:16.509Z,61.23
2018-01-11T23:48:42.757Z,63.50
2018-01-11T23:51:08.985Z,63.73
2018-01-11T23:53:35.296Z,63.83
2018-01-11T23:56:02.329Z,65.23
